Últimos artigos:
MSK144, FT8… using an IC-9700 and WSJT-X
Resolvendo um problema de áudio no GNU Radio
Converter um número Real para o formato binário em vírgula flutuante segundo a Norma IEEE-754
VirtualBox sobre Debian 10 (buster) não encontra dispositivos USB
Falta de som no Morse Runner em Linux?
Touchpad tapping, em Debian Buster (10)
Últimas fotos:
Últimos METARs:
LPAZ 232230Z 00000KT 9999 FEW015 SCT038 16...
LPFR 232230Z 33009KT CAVOK 21/13 Q1013=
LPHR 232230Z VRB03KT 9999 FEW015 SCT050 17...
LPLA 232200Z /////KT 9999 FEW008 SCT018 BK...
LPMA 232230Z 01013KT 320V050 9999 SCT016 1...
LPPD 232230Z 04007KT 9999 FEW016 16/14 Q10...
LPPR 232230Z 35009KT 9999 FEW020 14/10 Q10...
LPPS 232230Z 02012KT 9999 SCT015 18/12 Q10...
LPPT 232230Z 35009KT 9999 FEW022 15/11 Q10...
Últimos QSOs:
2022/04/18-12:39 40m EA1HPZ (JESUS)
2022/04/18-12:09 40m EA3Y (MANEL)
2022/04/18-12:08 40m EA2CKX (PEDRO)
2022/04/18-12:08 40m EA1AAP (FERNANDO)
2022/04/18-12:07 40m CT2GSN/P (JOAO)
2022/04/18-12:06 40m CT7ABG ()
  UTC

Fatal error: Allowed memory size of 268435456 bytes exhausted (tried to allocate 71 bytes) in /web/htdocs/www.airlomba.net/home/index.php on line 266